Terminal Aerodrome Forecast
Issued by NWS

Current Version | Previous Version | Graphics & Text | Print | Product List | Glossary On
Versions: 1 2 3 4 5 6 7 8 9 10 11 12 13 14 15
575
FTUS41 KPBZ 051720
TAFHLG
TAF
KHLG 051720Z 0518/0618 27006KT P6SM SKC
     FM060000 24003KT P6SM SCT250
     FM060600 20003KT P6SM BKN050
     FM061500 24010KT P6SM SCT035=

USA.gov is the U.S. government's official web portal to all federal, state and local government web resources and services.